Terminal Aerodrome Forecast
Issued by NWS Jackson, KY

Home | Current Version | Previous Version | Text Only | Print | Product List | Glossary On
Versions: 1 2 3 4 5 6 7 8 9 10
511
FTUS43 KJKL 080540
TAFJKL
TAF
KJKL 080540Z 0806/0906 VRB03KT P6SM VCSH BKN060
     FM081200 24004KT 3SM -SHRA OVC050
     FM081400 27006KT P6SM BKN025 OVC050
     FM081600 27007KT 3SM -SHRA VCTS BKN035CB
     FM082300 27006KT 3SM -SN BKN015=

USA.gov is the U.S. government's official web portal to all federal, state and local government web resources and services.